This is the latest recevied weather packets stored in our database for station/object KD9ZDW. If no packets are shown the sender has not sent any weather packets the latest 10 day(s).
| Time | Temp. | Humidity | Pressure | Rain* | Wind** | Luminosity | Snow |
|---|---|---|---|---|---|---|---|
| 1777958530 | 15.56° C | 77% | 1006.5 hPa | 0 mm | - | 0 W/m² | - |
| 1777958227 | 16.11° C | 75% | 1006.2 hPa | 0 mm | - | 0 W/m² | - |
| 1777957925 | 16.67° C | 73% | 1006.3 hPa | 0 mm | - | 0 W/m² | - |
| 1777957623 | 16.67° C | 72% | 1006.3 hPa | 0 mm | - | 0 W/m² | - |
| 1777957322 | 16.67° C | 71% | 1006.3 hPa | 0 mm | - | 0 W/m² | - |
| 1777957021 | 17.22° C | 70% | 1006 hPa | 0 mm | - | 0 W/m² | - |
| 1777956720 | 17.22° C | 69% | 1006 hPa | 0 mm | - | 0 W/m² | - |
| 1777956416 | 17.22° C | 70% | 1005.8 hPa | 0 mm | - | 0 W/m² | - |
| 1777956113 | 17.22° C | 69% | 1005.8 hPa | 0 mm | - | 0 W/m² | - |
| 1777955809 | 17.78° C | 69% | 1005.9 hPa | 0 mm | - | 0 W/m² | - |
| 1777955506 | 17.22° C | 69% | 1005.6 hPa | 0 mm | - | 0 W/m² | - |
| 1777955202 | 17.78° C | 69% | 1005.6 hPa | 0 mm | - | 0 W/m² | - |
| 1777954900 | 17.22° C | 71% | 1005.8 hPa | 0 mm | - | 0 W/m² | - |
| 1777954596 | 17.78° C | 71% | 1005.5 hPa | 0 mm | - | 0 W/m² | - |
| 1777954294 | 17.22° C | 76% | 1005.5 hPa | 0 mm | - | 0 W/m² | - |
| 1777953991 | 17.78° C | 71% | 1005.3 hPa | 0 mm | - | 0 W/m² | - |
| 1777953688 | 17.78° C | 70% | 1005 hPa | 0 mm | - | 0 W/m² | - |
| 1777953384 | 18.33° C | 68% | 1004.9 hPa | 0 mm | - | 0 W/m² | - |
| 1777953080 | 18.89° C | 61% | 1004.8 hPa | 0 mm | - | 0 W/m² | - |
| 1777952777 | 18.89° C | 61% | 1004.2 hPa | 0 mm | - | 0 W/m² | - |
| 1777952474 | 18.89° C | 60% | 1004.3 hPa | 0 mm | - | 0 W/m² | - |
| 1777952171 | 18.89° C | 60% | 1004.3 hPa | 0 mm | - | 0 W/m² | - |
| 1777951870 | 19.44° C | 59% | 1004.4 hPa | 0 mm | - | 0 W/m² | - |
| 1777951567 | 19.44° C | 59% | 1004.4 hPa | 0 mm | - | 0 W/m² | - |
| 1777951263 | 19.44° C | 59% | 1004.4 hPa | 0 mm | - | 0 W/m² | - |
* Rain latest hour (hover to see other rain measurements)
** Current wind speed in m/s (hover to see current wind gust speed)